Terminal Aerodrome Forecast
Issued by NWS Central Illinois

Home | Current Version | Previous Version | Text Only | Print | Product List | Glossary On
Versions: 1 2 3 4 5 6 7 8 9 10 11 12 13 14 15 16 17 18 19 20 21
000
FTUS43 KILX 231100
TAFSPI
TAF
KSPI 231120Z 2312/2412 16013KT P6SM BKN050 WS020/22040KT
     FM231500 15013G20KT 5SM -SHRA BR OVC007
     FM232200 18010KT 2SM -SHRA BR OVC004
     FM240900 26012G20KT 4SM BR VCSH OVC007=

USA.gov is the U.S. government's official web portal to all federal, state and local government web resources and services.